sensor_id;sensor_type;location;lat;lon;timestamp;temperature;humidity
7502;DHT22;3792;47.740;7.606;2023-07-13T00:01:52;21.30;99.90
7502;DHT22;3792;47.740;7.606;2023-07-13T00:04:21;21.30;99.90
7502;DHT22;3792;47.740;7.606;2023-07-13T00:06:52;21.40;99.90
7502;DHT22;3792;47.740;7.606;2023-07-13T00:09:20;21.50;99.90
7502;DHT22;3792;47.740;7.606;2023-07-13T00:11:50;21.50;99.90
7502;DHT22;3792;47.740;7.606;2023-07-13T00:14:18;21.40;99.90
7502;DHT22;3792;47.740;7.606;2023-07-13T00:16:45;21.40;99.90
7502;DHT22;3792;47.740;7.606;2023-07-13T00:19:13;21.40;99.90
7502;DHT22;3792;47.740;7.606;2023-07-13T00:21:40;21.30;99.90
7502;DHT22;3792;47.740;7.606;2023-07-13T00:24:11;21.20;99.90
7502;DHT22;3792;47.740;7.606;2023-07-13T00:26:39;21.10;99.90
7502;DHT22;3792;47.740;7.606;2023-07-13T00:29:06;20.90;99.90
7502;DHT22;3792;47.740;7.606;2023-07-13T00:31:35;21.00;99.90
7502;DHT22;3792;47.740;7.606;2023-07-13T00:34:02;21.10;99.90
7502;DHT22;3792;47.740;7.606;2023-07-13T00:36:30;21.20;99.90
7502;DHT22;3792;47.740;7.606;2023-07-13T00:38:57;21.20;99.90
7502;DHT22;3792;47.740;7.606;2023-07-13T00:41:26;21.20;99.90
7502;DHT22;3792;47.740;7.606;2023-07-13T00:43:53;21.10;99.90
7502;DHT22;3792;47.740;7.606;2023-07-13T00:46:23;21.00;99.90
7502;DHT22;3792;47.740;7.606;2023-07-13T00:48:51;21.00;99.90
7502;DHT22;3792;47.740;7.606;2023-07-13T00:51:25;21.00;99.90
7502;DHT22;3792;47.740;7.606;2023-07-13T00:53:54;21.00;99.90
7502;DHT22;3792;47.740;7.606;2023-07-13T00:56:23;21.10;99.90
7502;DHT22;3792;47.740;7.606;2023-07-13T00:58:52;21.20;99.90
7502;DHT22;3792;47.740;7.606;2023-07-13T01:01:20;21.30;99.90
7502;DHT22;3792;47.740;7.606;2023-07-13T01:03:47;21.40;99.90
7502;DHT22;3792;47.740;7.606;2023-07-13T01:06:14;21.40;99.90
7502;DHT22;3792;47.740;7.606;2023-07-13T01:08:43;21.40;99.90
7502;DHT22;3792;47.740;7.606;2023-07-13T01:11:10;21.40;99.90
7502;DHT22;3792;47.740;7.606;2023-07-13T01:13:37;21.40;99.90
7502;DHT22;3792;47.740;7.606;2023-07-13T01:16:13;21.50;99.90
7502;DHT22;3792;47.740;7.606;2023-07-13T01:18:41;21.50;99.90
7502;DHT22;3792;47.740;7.606;2023-07-13T01:21:10;21.50;99.90
7502;DHT22;3792;47.740;7.606;2023-07-13T01:23:37;21.50;99.90
7502;DHT22;3792;47.740;7.606;2023-07-13T01:26:04;21.60;99.90
7502;DHT22;3792;47.740;7.606;2023-07-13T01:28:31;21.60;99.90
7502;DHT22;3792;47.740;7.606;2023-07-13T01:31:03;21.60;99.90
7502;DHT22;3792;47.740;7.606;2023-07-13T01:33:30;21.60;99.90
7502;DHT22;3792;47.740;7.606;2023-07-13T01:35:57;21.60;99.90
7502;DHT22;3792;47.740;7.606;2023-07-13T01:38:26;21.60;99.90
7502;DHT22;3792;47.740;7.606;2023-07-13T01:40:53;21.60;99.90
7502;DHT22;3792;47.740;7.606;2023-07-13T01:43:20;21.50;99.90
7502;DHT22;3792;47.740;7.606;2023-07-13T01:45:48;21.40;99.90
7502;DHT22;3792;47.740;7.606;2023-07-13T01:48:15;21.40;99.90
7502;DHT22;3792;47.740;7.606;2023-07-13T01:50:42;21.40;99.90
7502;DHT22;3792;47.740;7.606;2023-07-13T01:53:09;21.40;99.90
7502;DHT22;3792;47.740;7.606;2023-07-13T01:55:38;21.40;99.90
7502;DHT22;3792;47.740;7.606;2023-07-13T01:58:05;21.40;99.90
7502;DHT22;3792;47.740;7.606;2023-07-13T02:00:33;21.50;99.90
7502;DHT22;3792;47.740;7.606;2023-07-13T02:03:00;21.50;99.90
7502;DHT22;3792;47.740;7.606;2023-07-13T02:05:27;21.50;99.90
7502;DHT22;3792;47.740;7.606;2023-07-13T02:07:54;21.40;99.90
7502;DHT22;3792;47.740;7.606;2023-07-13T02:10:21;21.40;99.90
7502;DHT22;3792;47.740;7.606;2023-07-13T02:12:50;21.30;99.90
7502;DHT22;3792;47.740;7.606;2023-07-13T02:15:18;21.30;99.90
7502;DHT22;3792;47.740;7.606;2023-07-13T02:17:45;21.30;99.90
7502;DHT22;3792;47.740;7.606;2023-07-13T02:20:12;21.20;99.90
7502;DHT22;3792;47.740;7.606;2023-07-13T02:22:39;21.20;99.90
7502;DHT22;3792;47.740;7.606;2023-07-13T02:25:06;21.20;99.90
7502;DHT22;3792;47.740;7.606;2023-07-13T02:27:34;21.20;99.90
7502;DHT22;3792;47.740;7.606;2023-07-13T02:30:03;21.20;99.90
7502;DHT22;3792;47.740;7.606;2023-07-13T02:32:30;21.20;99.90
7502;DHT22;3792;47.740;7.606;2023-07-13T02:34:57;21.20;99.90
7502;DHT22;3792;47.740;7.606;2023-07-13T02:37:24;21.10;99.90
7502;DHT22;3792;47.740;7.606;2023-07-13T02:39:51;21.20;99.90
7502;DHT22;3792;47.740;7.606;2023-07-13T02:42:18;21.20;99.90
7502;DHT22;3792;47.740;7.606;2023-07-13T02:44:45;21.20;99.90
7502;DHT22;3792;47.740;7.606;2023-07-13T02:47:14;21.20;99.90
7502;DHT22;3792;47.740;7.606;2023-07-13T02:49:41;21.20;99.90
7502;DHT22;3792;47.740;7.606;2023-07-13T02:52:08;21.30;99.90
7502;DHT22;3792;47.740;7.606;2023-07-13T02:54:35;21.30;99.90
7502;DHT22;3792;47.740;7.606;2023-07-13T02:57:02;21.20;99.90
7502;DHT22;3792;47.740;7.606;2023-07-13T02:59:29;21.10;99.90
7502;DHT22;3792;47.740;7.606;2023-07-13T03:01:57;21.10;99.90
7502;DHT22;3792;47.740;7.606;2023-07-13T03:04:25;21.10;99.90
7502;DHT22;3792;47.740;7.606;2023-07-13T03:06:51;21.20;99.90
7502;DHT22;3792;47.740;7.606;2023-07-13T03:09:18;21.20;99.90
7502;DHT22;3792;47.740;7.606;2023-07-13T03:11:45;21.20;99.90
7502;DHT22;3792;47.740;7.606;2023-07-13T03:14:12;21.20;99.90
7502;DHT22;3792;47.740;7.606;2023-07-13T03:16:40;21.20;99.90
7502;DHT22;3792;47.740;7.606;2023-07-13T03:19:07;21.10;99.90
7502;DHT22;3792;47.740;7.606;2023-07-13T03:21:36;21.10;99.90
7502;DHT22;3792;47.740;7.606;2023-07-13T03:24:03;21.10;99.90
7502;DHT22;3792;47.740;7.606;2023-07-13T03:26:30;21.10;99.90
7502;DHT22;3792;47.740;7.606;2023-07-13T03:28:57;21.00;99.90
7502;DHT22;3792;47.740;7.606;2023-07-13T03:31:26;21.00;99.90
7502;DHT22;3792;47.740;7.606;2023-07-13T03:33:54;20.90;99.90
7502;DHT22;3792;47.740;7.606;2023-07-13T03:36:24;20.90;99.90
7502;DHT22;3792;47.740;7.606;2023-07-13T03:38:54;20.90;99.90
7502;DHT22;3792;47.740;7.606;2023-07-13T03:41:21;20.90;99.90
7502;DHT22;3792;47.740;7.606;2023-07-13T03:43:49;21.00;99.90
7502;DHT22;3792;47.740;7.606;2023-07-13T03:46:17;21.00;99.90
7502;DHT22;3792;47.740;7.606;2023-07-13T03:48:45;21.00;99.90
7502;DHT22;3792;47.740;7.606;2023-07-13T03:51:13;20.90;99.90
7502;DHT22;3792;47.740;7.606;2023-07-13T03:53:42;21.00;99.90
7502;DHT22;3792;47.740;7.606;2023-07-13T03:56:12;21.00;99.90
7502;DHT22;3792;47.740;7.606;2023-07-13T03:58:41;21.00;99.90
7502;DHT22;3792;47.740;7.606;2023-07-13T04:01:10;21.00;99.90
7502;DHT22;3792;47.740;7.606;2023-07-13T04:03:37;20.90;99.90
7502;DHT22;3792;47.740;7.606;2023-07-13T04:06:06;20.90;99.90
7502;DHT22;3792;47.740;7.606;2023-07-13T04:08:35;20.80;99.90
7502;DHT22;3792;47.740;7.606;2023-07-13T04:11:04;20.70;99.90
7502;DHT22;3792;47.740;7.606;2023-07-13T04:13:33;20.50;99.90
7502;DHT22;3792;47.740;7.606;2023-07-13T04:16:00;20.40;99.90
7502;DHT22;3792;47.740;7.606;2023-07-13T04:18:27;20.50;99.90
7502;DHT22;3792;47.740;7.606;2023-07-13T04:20:54;20.50;99.90
7502;DHT22;3792;47.740;7.606;2023-07-13T04:23:21;20.60;99.90
7502;DHT22;3792;47.740;7.606;2023-07-13T04:25:49;20.60;99.90
7502;DHT22;3792;47.740;7.606;2023-07-13T04:28:18;20.70;99.90
7502;DHT22;3792;47.740;7.606;2023-07-13T04:30:47;20.80;99.90
7502;DHT22;3792;47.740;7.606;2023-07-13T04:33:14;20.90;99.90
7502;DHT22;3792;47.740;7.606;2023-07-13T04:35:42;20.80;99.90
7502;DHT22;3792;47.740;7.606;2023-07-13T04:38:09;20.80;99.90
7502;DHT22;3792;47.740;7.606;2023-07-13T04:40:38;20.70;99.90
7502;DHT22;3792;47.740;7.606;2023-07-13T04:43:05;20.60;99.90
7502;DHT22;3792;47.740;7.606;2023-07-13T04:45:32;20.60;99.90
7502;DHT22;3792;47.740;7.606;2023-07-13T04:48:00;20.50;99.90
7502;DHT22;3792;47.740;7.606;2023-07-13T04:50:27;20.20;99.90
7502;DHT22;3792;47.740;7.606;2023-07-13T04:52:54;20.10;99.90
7502;DHT22;3792;47.740;7.606;2023-07-13T04:55:21;20.00;99.90
7502;DHT22;3792;47.740;7.606;2023-07-13T04:57:48;19.90;99.90
7502;DHT22;3792;47.740;7.606;2023-07-13T05:00:15;20.00;99.90
7502;DHT22;3792;47.740;7.606;2023-07-13T05:02:44;20.20;99.90
7502;DHT22;3792;47.740;7.606;2023-07-13T05:05:13;20.30;99.90
7502;DHT22;3792;47.740;7.606;2023-07-13T05:07:40;20.50;99.90
7502;DHT22;3792;47.740;7.606;2023-07-13T05:10:08;20.50;99.90
7502;DHT22;3792;47.740;7.606;2023-07-13T05:12:35;20.60;99.90
7502;DHT22;3792;47.740;7.606;2023-07-13T05:15:03;20.70;99.90
7502;DHT22;3792;47.740;7.606;2023-07-13T05:17:30;20.80;99.90
7502;DHT22;3792;47.740;7.606;2023-07-13T05:19:57;20.80;99.90
7502;DHT22;3792;47.740;7.606;2023-07-13T05:22:26;20.80;99.90
7502;DHT22;3792;47.740;7.606;2023-07-13T05:24:53;20.90;99.90
7502;DHT22;3792;47.740;7.606;2023-07-13T05:27:20;20.80;99.90
7502;DHT22;3792;47.740;7.606;2023-07-13T05:29:47;20.80;99.90
7502;DHT22;3792;47.740;7.606;2023-07-13T05:32:14;20.50;99.90
7502;DHT22;3792;47.740;7.606;2023-07-13T05:34:41;20.40;99.90
7502;DHT22;3792;47.740;7.606;2023-07-13T05:37:08;20.40;99.90
7502;DHT22;3792;47.740;7.606;2023-07-13T05:39:37;20.50;99.90
7502;DHT22;3792;47.740;7.606;2023-07-13T05:42:04;20.60;99.90
7502;DHT22;3792;47.740;7.606;2023-07-13T05:44:31;20.70;99.90
7502;DHT22;3792;47.740;7.606;2023-07-13T05:46:58;20.80;99.90
7502;DHT22;3792;47.740;7.606;2023-07-13T05:49:25;21.10;99.90
7502;DHT22;3792;47.740;7.606;2023-07-13T05:51:52;21.30;99.90
7502;DHT22;3792;47.740;7.606;2023-07-13T05:54:19;21.50;99.90
7502;DHT22;3792;47.740;7.606;2023-07-13T05:56:48;21.60;99.90
7502;DHT22;3792;47.740;7.606;2023-07-13T05:59:15;21.80;99.90
7502;DHT22;3792;47.740;7.606;2023-07-13T06:01:42;21.90;99.90
7502;DHT22;3792;47.740;7.606;2023-07-13T06:04:09;21.80;99.90
7502;DHT22;3792;47.740;7.606;2023-07-13T06:06:36;21.80;99.90
7502;DHT22;3792;47.740;7.606;2023-07-13T06:09:03;21.90;99.90
7502;DHT22;3792;47.740;7.606;2023-07-13T06:11:30;22.00;99.90
7502;DHT22;3792;47.740;7.606;2023-07-13T06:13:59;22.10;99.90
7502;DHT22;3792;47.740;7.606;2023-07-13T06:16:26;21.90;99.90
7502;DHT22;3792;47.740;7.606;2023-07-13T06:18:53;22.00;99.90
7502;DHT22;3792;47.740;7.606;2023-07-13T06:21:21;22.10;99.90
7502;DHT22;3792;47.740;7.606;2023-07-13T06:23:50;22.30;99.90
7502;DHT22;3792;47.740;7.606;2023-07-13T06:26:20;22.40;99.90
7502;DHT22;3792;47.740;7.606;2023-07-13T06:28:47;22.50;99.90
7502;DHT22;3792;47.740;7.606;2023-07-13T06:31:16;22.50;99.90
7502;DHT22;3792;47.740;7.606;2023-07-13T06:33:43;22.70;99.90
7502;DHT22;3792;47.740;7.606;2023-07-13T06:36:11;22.70;99.90
7502;DHT22;3792;47.740;7.606;2023-07-13T06:38:38;22.60;99.90
7502;DHT22;3792;47.740;7.606;2023-07-13T06:41:06;22.70;99.90
7502;DHT22;3792;47.740;7.606;2023-07-13T06:43:34;22.80;99.90
7502;DHT22;3792;47.740;7.606;2023-07-13T06:46:01;22.90;99.90
7502;DHT22;3792;47.740;7.606;2023-07-13T06:48:30;22.80;99.90
7502;DHT22;3792;47.740;7.606;2023-07-13T06:50:57;23.00;99.90
7502;DHT22;3792;47.740;7.606;2023-07-13T06:53:24;23.10;99.90
7502;DHT22;3792;47.740;7.606;2023-07-13T06:55:51;23.20;99.90
7502;DHT22;3792;47.740;7.606;2023-07-13T06:58:19;23.30;99.90
7502;DHT22;3792;47.740;7.606;2023-07-13T07:00:49;23.20;99.90
7502;DHT22;3792;47.740;7.606;2023-07-13T07:03:16;23.30;99.90
7502;DHT22;3792;47.740;7.606;2023-07-13T07:05:45;23.30;99.90
7502;DHT22;3792;47.740;7.606;2023-07-13T07:08:12;23.10;99.90
7502;DHT22;3792;47.740;7.606;2023-07-13T07:10:40;23.00;99.90
7502;DHT22;3792;47.740;7.606;2023-07-13T07:13:08;23.00;99.90
7502;DHT22;3792;47.740;7.606;2023-07-13T07:15:35;23.00;99.90
7502;DHT22;3792;47.740;7.606;2023-07-13T07:18:03;22.90;99.90
7502;DHT22;3792;47.740;7.606;2023-07-13T07:20:30;22.90;99.90
7502;DHT22;3792;47.740;7.606;2023-07-13T07:22:59;23.00;99.90
7502;DHT22;3792;47.740;7.606;2023-07-13T07:25:26;22.90;99.90
7502;DHT22;3792;47.740;7.606;2023-07-13T07:27:57;23.00;99.90
7502;DHT22;3792;47.740;7.606;2023-07-13T07:30:24;23.10;99.90
7502;DHT22;3792;47.740;7.606;2023-07-13T07:32:51;23.20;99.90
7502;DHT22;3792;47.740;7.606;2023-07-13T07:35:19;23.30;99.90
7502;DHT22;3792;47.740;7.606;2023-07-13T07:37:46;23.40;99.90
7502;DHT22;3792;47.740;7.606;2023-07-13T07:40:14;23.50;99.90
7502;DHT22;3792;47.740;7.606;2023-07-13T07:42:41;23.50;99.90
7502;DHT22;3792;47.740;7.606;2023-07-13T07:45:09;23.50;99.90
7502;DHT22;3792;47.740;7.606;2023-07-13T07:47:37;23.60;99.90
7502;DHT22;3792;47.740;7.606;2023-07-13T07:50:05;23.50;99.90
7502;DHT22;3792;47.740;7.606;2023-07-13T07:52:32;23.50;99.90
7502;DHT22;3792;47.740;7.606;2023-07-13T07:55:00;23.60;99.90
7502;DHT22;3792;47.740;7.606;2023-07-13T07:57:28;23.50;99.90
7502;DHT22;3792;47.740;7.606;2023-07-13T07:59:55;23.30;99.90
7502;DHT22;3792;47.740;7.606;2023-07-13T08:02:22;23.50;99.90
7502;DHT22;3792;47.740;7.606;2023-07-13T08:04:49;23.50;99.90
7502;DHT22;3792;47.740;7.606;2023-07-13T08:07:17;23.60;99.90
7502;DHT22;3792;47.740;7.606;2023-07-13T08:09:44;23.70;99.90
7502;DHT22;3792;47.740;7.606;2023-07-13T08:12:12;23.70;99.90
7502;DHT22;3792;47.740;7.606;2023-07-13T08:14:40;23.80;99.90
7502;DHT22;3792;47.740;7.606;2023-07-13T08:17:07;23.70;99.90
7502;DHT22;3792;47.740;7.606;2023-07-13T08:19:34;23.60;99.90
7502;DHT22;3792;47.740;7.606;2023-07-13T08:22:01;23.40;99.90
7502;DHT22;3792;47.740;7.606;2023-07-13T08:24:28;23.50;99.90
7502;DHT22;3792;47.740;7.606;2023-07-13T08:26:56;23.70;99.90
7502;DHT22;3792;47.740;7.606;2023-07-13T08:29:23;23.70;99.90
7502;DHT22;3792;47.740;7.606;2023-07-13T08:31:51;23.80;99.90
7502;DHT22;3792;47.740;7.606;2023-07-13T08:34:18;23.90;99.70
7502;DHT22;3792;47.740;7.606;2023-07-13T08:36:46;23.90;98.90
7502;DHT22;3792;47.740;7.606;2023-07-13T08:39:13;23.90;99.90
7502;DHT22;3792;47.740;7.606;2023-07-13T08:41:40;23.90;99.90
7502;DHT22;3792;47.740;7.606;2023-07-13T08:44:19;24.10;99.90
7502;DHT22;3792;47.740;7.606;2023-07-13T08:46:48;24.30;99.90
7502;DHT22;3792;47.740;7.606;2023-07-13T08:49:21;24.30;99.90
7502;DHT22;3792;47.740;7.606;2023-07-13T08:51:53;24.30;99.90
7502;DHT22;3792;47.740;7.606;2023-07-13T08:54:28;24.40;99.50
7502;DHT22;3792;47.740;7.606;2023-07-13T08:56:57;24.50;98.50
7502;DHT22;3792;47.740;7.606;2023-07-13T08:59:27;24.40;98.20
7502;DHT22;3792;47.740;7.606;2023-07-13T09:02:23;24.40;98.00
7502;DHT22;3792;47.740;7.606;2023-07-13T09:04:56;24.30;97.50
7502;DHT22;3792;47.740;7.606;2023-07-13T09:07:34;24.40;97.80
7502;DHT22;3792;47.740;7.606;2023-07-13T09:10:12;24.40;97.80
7502;DHT22;3792;47.740;7.606;2023-07-13T09:12:50;24.30;98.20
7502;DHT22;3792;47.740;7.606;2023-07-13T09:15:26;24.40;98.70
7502;DHT22;3792;47.740;7.606;2023-07-13T09:17:56;24.30;98.90
7502;DHT22;3792;47.740;7.606;2023-07-13T09:20:30;24.50;98.90
7502;DHT22;3792;47.740;7.606;2023-07-13T09:23:00;24.60;98.50
7502;DHT22;3792;47.740;7.606;2023-07-13T09:25:31;24.70;98.60
7502;DHT22;3792;47.740;7.606;2023-07-13T09:28:01;24.90;98.00
7502;DHT22;3792;47.740;7.606;2023-07-13T09:30:39;25.00;97.20
7502;DHT22;3792;47.740;7.606;2023-07-13T09:33:07;25.10;97.50
7502;DHT22;3792;47.740;7.606;2023-07-13T09:35:37;25.10;94.70
7502;DHT22;3792;47.740;7.606;2023-07-13T09:38:12;25.20;95.50
7502;DHT22;3792;47.740;7.606;2023-07-13T09:40:46;25.10;96.20
7502;DHT22;3792;47.740;7.606;2023-07-13T09:43:16;25.20;98.60
7502;DHT22;3792;47.740;7.606;2023-07-13T09:45:46;25.40;97.40
7502;DHT22;3792;47.740;7.606;2023-07-13T09:48:15;25.40;96.00
7502;DHT22;3792;47.740;7.606;2023-07-13T09:50:44;25.20;96.20
7502;DHT22;3792;47.740;7.606;2023-07-13T09:53:13;25.00;96.30
7502;DHT22;3792;47.740;7.606;2023-07-13T09:55:43;24.90;96.70
7502;DHT22;3792;47.740;7.606;2023-07-13T09:58:13;25.00;96.40
7502;DHT22;3792;47.740;7.606;2023-07-13T10:00:42;25.10;97.30
7502;DHT22;3792;47.740;7.606;2023-07-13T10:03:18;25.40;98.20
7502;DHT22;3792;47.740;7.606;2023-07-13T10:05:48;25.50;96.90
7502;DHT22;3792;47.740;7.606;2023-07-13T10:08:19;25.30;96.90
7502;DHT22;3792;47.740;7.606;2023-07-13T10:10:52;25.50;96.10
7502;DHT22;3792;47.740;7.606;2023-07-13T10:13:33;25.60;96.40
7502;DHT22;3792;47.740;7.606;2023-07-13T10:16:04;25.70;95.90
7502;DHT22;3792;47.740;7.606;2023-07-13T10:18:39;25.90;96.70
7502;DHT22;3792;47.740;7.606;2023-07-13T10:21:17;25.90;97.40
7502;DHT22;3792;47.740;7.606;2023-07-13T10:23:48;25.80;96.40
7502;DHT22;3792;47.740;7.606;2023-07-13T10:26:21;25.70;96.10
7502;DHT22;3792;47.740;7.606;2023-07-13T10:28:55;25.80;95.10
7502;DHT22;3792;47.740;7.606;2023-07-13T10:31:25;25.80;95.30
7502;DHT22;3792;47.740;7.606;2023-07-13T10:33:53;25.80;95.20
7502;DHT22;3792;47.740;7.606;2023-07-13T10:36:35;25.80;94.70
7502;DHT22;3792;47.740;7.606;2023-07-13T10:39:06;25.90;95.50
7502;DHT22;3792;47.740;7.606;2023-07-13T10:41:39;25.80;95.60
7502;DHT22;3792;47.740;7.606;2023-07-13T10:44:15;25.60;96.20
7502;DHT22;3792;47.740;7.606;2023-07-13T10:46:45;25.80;96.50
7502;DHT22;3792;47.740;7.606;2023-07-13T10:49:13;26.00;96.50
7502;DHT22;3792;47.740;7.606;2023-07-13T10:51:42;26.00;94.80
7502;DHT22;3792;47.740;7.606;2023-07-13T10:54:20;26.10;95.10
7502;DHT22;3792;47.740;7.606;2023-07-13T10:57:08;26.00;94.00
7502;DHT22;3792;47.740;7.606;2023-07-13T10:59:39;26.00;93.00
7502;DHT22;3792;47.740;7.606;2023-07-13T11:02:13;26.20;93.30
7502;DHT22;3792;47.740;7.606;2023-07-13T11:04:44;26.10;93.30
7502;DHT22;3792;47.740;7.606;2023-07-13T11:07:20;26.20;93.40
7502;DHT22;3792;47.740;7.606;2023-07-13T11:09:50;26.40;93.20
7502;DHT22;3792;47.740;7.606;2023-07-13T11:12:49;26.30;91.70
7502;DHT22;3792;47.740;7.606;2023-07-13T11:15:30;26.30;92.00
7502;DHT22;3792;47.740;7.606;2023-07-13T11:18:02;26.40;90.10
7502;DHT22;3792;47.740;7.606;2023-07-13T11:20:35;26.40;89.60
7502;DHT22;3792;47.740;7.606;2023-07-13T11:23:28;26.60;87.20
7502;DHT22;3792;47.740;7.606;2023-07-13T11:25:56;26.70;86.30
7502;DHT22;3792;47.740;7.606;2023-07-13T11:28:27;26.80;86.70
7502;DHT22;3792;47.740;7.606;2023-07-13T11:31:12;27.00;85.30
7502;DHT22;3792;47.740;7.606;2023-07-13T11:33:56;27.20;85.50
7502;DHT22;3792;47.740;7.606;2023-07-13T11:36:35;27.00;87.90
7502;DHT22;3792;47.740;7.606;2023-07-13T11:39:13;26.90;89.70
7502;DHT22;3792;47.740;7.606;2023-07-13T11:41:45;27.00;90.10
7502;DHT22;3792;47.740;7.606;2023-07-13T11:44:15;27.00;89.30
7502;DHT22;3792;47.740;7.606;2023-07-13T11:46:47;27.00;89.00
7502;DHT22;3792;47.740;7.606;2023-07-13T11:49:16;26.70;87.60
7502;DHT22;3792;47.740;7.606;2023-07-13T11:51:44;26.60;89.30
7502;DHT22;3792;47.740;7.606;2023-07-13T11:54:24;26.60;89.20
7502;DHT22;3792;47.740;7.606;2023-07-13T11:56:54;26.80;88.10
7502;DHT22;3792;47.740;7.606;2023-07-13T11:59:23;27.00;86.70
7502;DHT22;3792;47.740;7.606;2023-07-13T12:01:52;27.10;84.00
7502;DHT22;3792;47.740;7.606;2023-07-13T12:04:24;27.20;87.50
7502;DHT22;3792;47.740;7.606;2023-07-13T12:06:56;27.50;85.20
7502;DHT22;3792;47.740;7.606;2023-07-13T12:09:27;27.40;84.00
7502;DHT22;3792;47.740;7.606;2023-07-13T12:11:57;27.70;82.50
7502;DHT22;3792;47.740;7.606;2023-07-13T12:14:26;27.80;83.60
7502;DHT22;3792;47.740;7.606;2023-07-13T12:16:53;27.90;84.50
7502;DHT22;3792;47.740;7.606;2023-07-13T12:19:22;27.90;84.40
7502;DHT22;3792;47.740;7.606;2023-07-13T12:21:52;28.10;84.40
7502;DHT22;3792;47.740;7.606;2023-07-13T12:24:21;28.10;81.60
7502;DHT22;3792;47.740;7.606;2023-07-13T12:26:55;28.30;84.20
7502;DHT22;3792;47.740;7.606;2023-07-13T12:29:26;28.20;83.10
7502;DHT22;3792;47.740;7.606;2023-07-13T12:31:54;28.10;81.50
7502;DHT22;3792;47.740;7.606;2023-07-13T12:34:24;28.30;87.60
7502;DHT22;3792;47.740;7.606;2023-07-13T12:36:53;28.40;84.00
7502;DHT22;3792;47.740;7.606;2023-07-13T12:39:23;28.10;81.60
7502;DHT22;3792;47.740;7.606;2023-07-13T12:41:54;28.10;83.60
7502;DHT22;3792;47.740;7.606;2023-07-13T12:44:40;28.40;82.90
7502;DHT22;3792;47.740;7.606;2023-07-13T12:47:14;28.50;77.60
7502;DHT22;3792;47.740;7.606;2023-07-13T12:49:48;28.70;78.00
7502;DHT22;3792;47.740;7.606;2023-07-13T12:52:19;29.00;76.50
7502;DHT22;3792;47.740;7.606;2023-07-13T12:54:54;29.10;75.20
7502;DHT22;3792;47.740;7.606;2023-07-13T12:57:24;29.10;74.30
7502;DHT22;3792;47.740;7.606;2023-07-13T12:59:53;29.00;74.30
7502;DHT22;3792;47.740;7.606;2023-07-13T13:02:30;29.20;73.50
7502;DHT22;3792;47.740;7.606;2023-07-13T13:04:57;29.30;73.00
7502;DHT22;3792;47.740;7.606;2023-07-13T13:07:25;29.60;74.60
7502;DHT22;3792;47.740;7.606;2023-07-13T13:09:52;29.50;70.00
7502;DHT22;3792;47.740;7.606;2023-07-13T13:12:21;29.10;70.00
7502;DHT22;3792;47.740;7.606;2023-07-13T13:14:51;29.50;71.10
7502;DHT22;3792;47.740;7.606;2023-07-13T13:17:20;29.70;69.20
7502;DHT22;3792;47.740;7.606;2023-07-13T13:19:49;29.80;68.90
7502;DHT22;3792;47.740;7.606;2023-07-13T13:22:18;29.70;67.30
7502;DHT22;3792;47.740;7.606;2023-07-13T13:24:46;29.90;66.10
7502;DHT22;3792;47.740;7.606;2023-07-13T13:27:15;29.80;63.70
7502;DHT22;3792;47.740;7.606;2023-07-13T13:29:44;29.70;62.80
7502;DHT22;3792;47.740;7.606;2023-07-13T13:32:14;29.60;66.20
7502;DHT22;3792;47.740;7.606;2023-07-13T13:34:42;29.80;62.50
7502;DHT22;3792;47.740;7.606;2023-07-13T13:37:17;30.10;63.30
7502;DHT22;3792;47.740;7.606;2023-07-13T13:39:45;30.20;63.40
7502;DHT22;3792;47.740;7.606;2023-07-13T13:42:12;30.00;62.40
7502;DHT22;3792;47.740;7.606;2023-07-13T13:44:40;30.10;62.80
7502;DHT22;3792;47.740;7.606;2023-07-13T13:47:25;29.80;61.70
7502;DHT22;3792;47.740;7.606;2023-07-13T13:49:53;29.50;61.50
7502;DHT22;3792;47.740;7.606;2023-07-13T13:52:20;29.20;63.30
7502;DHT22;3792;47.740;7.606;2023-07-13T13:54:48;29.10;61.60
7502;DHT22;3792;47.740;7.606;2023-07-13T13:57:15;29.40;62.00
7502;DHT22;3792;47.740;7.606;2023-07-13T13:59:42;29.50;62.50
7502;DHT22;3792;47.740;7.606;2023-07-13T14:02:24;29.50;60.90
7502;DHT22;3792;47.740;7.606;2023-07-13T14:04:56;29.50;60.60
7502;DHT22;3792;47.740;7.606;2023-07-13T14:07:25;29.80;61.30
7502;DHT22;3792;47.740;7.606;2023-07-13T14:09:52;30.00;61.00
7502;DHT22;3792;47.740;7.606;2023-07-13T14:12:20;30.10;61.40
7502;DHT22;3792;47.740;7.606;2023-07-13T14:14:47;30.00;62.20
7502;DHT22;3792;47.740;7.606;2023-07-13T14:17:20;29.80;61.50
7502;DHT22;3792;47.740;7.606;2023-07-13T14:19:50;29.90;62.30
7502;DHT22;3792;47.740;7.606;2023-07-13T14:22:23;29.80;61.80
7502;DHT22;3792;47.740;7.606;2023-07-13T14:24:52;29.60;60.20
7502;DHT22;3792;47.740;7.606;2023-07-13T14:27:19;29.50;61.50
7502;DHT22;3792;47.740;7.606;2023-07-13T14:29:46;29.20;61.60
7502;DHT22;3792;47.740;7.606;2023-07-13T14:32:13;29.20;60.20
7502;DHT22;3792;47.740;7.606;2023-07-13T14:34:41;29.20;59.00
7502;DHT22;3792;47.740;7.606;2023-07-13T14:37:13;29.50;61.80
7502;DHT22;3792;47.740;7.606;2023-07-13T14:39:41;29.60;59.10
7502;DHT22;3792;47.740;7.606;2023-07-13T14:42:09;29.70;60.00
7502;DHT22;3792;47.740;7.606;2023-07-13T14:44:38;29.80;59.70
7502;DHT22;3792;47.740;7.606;2023-07-13T14:47:06;29.60;58.60
7502;DHT22;3792;47.740;7.606;2023-07-13T14:49:35;29.50;59.30
7502;DHT22;3792;47.740;7.606;2023-07-13T14:52:10;29.20;60.30
7502;DHT22;3792;47.740;7.606;2023-07-13T14:54:39;29.10;60.90
7502;DHT22;3792;47.740;7.606;2023-07-13T14:57:10;29.20;61.50
7502;DHT22;3792;47.740;7.606;2023-07-13T14:59:37;28.80;62.30
7502;DHT22;3792;47.740;7.606;2023-07-13T15:02:21;28.80;61.90
7502;DHT22;3792;47.740;7.606;2023-07-13T15:04:50;28.80;63.20
7502;DHT22;3792;47.740;7.606;2023-07-13T15:07:17;29.00;62.50
7502;DHT22;3792;47.740;7.606;2023-07-13T15:09:47;29.10;62.50
7502;DHT22;3792;47.740;7.606;2023-07-13T15:12:16;29.00;62.10
7502;DHT22;3792;47.740;7.606;2023-07-13T15:14:43;28.80;62.90
7502;DHT22;3792;47.740;7.606;2023-07-13T15:17:36;28.50;61.10
7502;DHT22;3792;47.740;7.606;2023-07-13T15:20:11;28.50;62.80
7502;DHT22;3792;47.740;7.606;2023-07-13T15:22:42;28.40;62.50
7502;DHT22;3792;47.740;7.606;2023-07-13T15:25:16;28.40;63.40
7502;DHT22;3792;47.740;7.606;2023-07-13T15:27:43;28.50;62.90
7502;DHT22;3792;47.740;7.606;2023-07-13T15:30:12;28.50;63.90
7502;DHT22;3792;47.740;7.606;2023-07-13T15:32:40;28.60;63.90
7502;DHT22;3792;47.740;7.606;2023-07-13T15:35:14;29.00;63.10
7502;DHT22;3792;47.740;7.606;2023-07-13T15:37:42;28.90;62.40
7502;DHT22;3792;47.740;7.606;2023-07-13T15:40:10;28.80;63.40
7502;DHT22;3792;47.740;7.606;2023-07-13T15:42:40;28.90;63.70
7502;DHT22;3792;47.740;7.606;2023-07-13T15:45:15;29.00;63.80
7502;DHT22;3792;47.740;7.606;2023-07-13T15:47:44;28.80;60.80
7502;DHT22;3792;47.740;7.606;2023-07-13T15:50:15;28.40;61.20
7502;DHT22;3792;47.740;7.606;2023-07-13T15:52:44;28.40;62.60
7502;DHT22;3792;47.740;7.606;2023-07-13T15:55:14;28.60;63.20
7502;DHT22;3792;47.740;7.606;2023-07-13T15:57:47;28.70;60.70
7502;DHT22;3792;47.740;7.606;2023-07-13T16:00:19;28.70;59.70
7502;DHT22;3792;47.740;7.606;2023-07-13T16:02:47;28.60;58.70
7502;DHT22;3792;47.740;7.606;2023-07-13T16:05:16;28.50;59.00
7502;DHT22;3792;47.740;7.606;2023-07-13T16:07:45;28.70;60.20
7502;DHT22;3792;47.740;7.606;2023-07-13T16:10:17;28.80;61.30
7502;DHT22;3792;47.740;7.606;2023-07-13T16:12:46;28.80;58.60
7502;DHT22;3792;47.740;7.606;2023-07-13T16:15:16;28.50;58.90
7502;DHT22;3792;47.740;7.606;2023-07-13T16:17:44;28.50;58.10